This is the latest recevied weather packets stored in our database for station/object vk4vs. If no packets are shown the sender has not sent any weather packets the latest 1 day(s).
| Time | Temp. | Humidity | Pressure | Rain* | Wind** | Luminosity | Snow |
|---|---|---|---|---|---|---|---|
| 1778016654 | 14.44° C | 98% | 1018.1 hPa | 0 mm | 2.24 m/s, 131° | - | - |
| 1778014853 | 14.44° C | 98% | 1017.8 hPa | 0 mm | 1.79 m/s, 119° | - | - |
| 1778013054 | 14.44° C | 98% | 1017.4 hPa | 0 mm | 1.79 m/s, 137° | - | - |
| 1778011253 | 14.44° C | 98% | 1017.4 hPa | 0 mm | 0.89 m/s, 115° | - | - |
| 1778009453 | 14.44° C | 98% | 1017.3 hPa | 0 mm | 0.89 m/s, 111° | - | - |
| 1778007653 | 15° C | 98% | 1017.2 hPa | 0 mm | 0.89 m/s, 115° | - | - |
| 1778005853 | 15° C | 98% | 1016.8 hPa | 0 mm | 0.45 m/s, 85° | - | - |
| 1778004054 | 15° C | 98% | 1016.7 hPa | 0 mm | 1.34 m/s, 122° | - | - |
| 1778002254 | 15° C | 97% | 1016.7 hPa | 0 mm | 1.79 m/s, 114° | - | - |
| 1778000454 | 15° C | 97% | 1016.9 hPa | 0 mm | 1.79 m/s, 125° | - | - |
| 1777998653 | 15° C | 97% | 1017.2 hPa | 0 mm | 0.89 m/s, 98° | - | - |
| 1777996854 | 15° C | 97% | 1017.4 hPa | 0 mm | 1.34 m/s, 91° | - | - |
| 1777995054 | 15° C | 97% | 1017.5 hPa | 0 mm | 1.79 m/s, 121° | - | - |
| 1777991453 | 15° C | 96% | 1017.8 hPa | 0 mm | 1.34 m/s, 102° | - | - |
| 1777989653 | 15° C | 96% | 1018.2 hPa | 0 mm | 1.79 m/s, 113° | - | - |
| 1777987854 | 14.44° C | 97% | 1018.5 hPa | 0 mm | 2.68 m/s, 122° | - | - |
| 1777986053 | 15° C | 97% | 1018.4 hPa | 0 mm | 2.68 m/s, 132° | - | - |
| 1777984254 | 15° C | 96% | 1018.4 hPa | 0 mm | 2.68 m/s, 123° | - | - |
| 1777982453 | 15.56° C | 95% | 1018.4 hPa | 0 mm | 2.24 m/s, 122° | - | - |
| 1777980653 | 15.56° C | 92% | 1018.5 hPa | 0 mm | 2.68 m/s, 126° | - | - |
| 1777978853 | 16.11° C | 89% | 1018.4 hPa | 0 mm | 2.24 m/s, 140° | - | - |
| 1777977053 | 16.67° C | 87% | 1017.9 hPa | 0 mm | 1.79 m/s, 124° | - | - |
* Rain latest hour (hover to see other rain measurements)
** Current wind speed in m/s (hover to see current wind gust speed)